<?xml version='1.0' encoding='UTF-8'?><gpx version="1.1" creator="JPX - https://github.com/jenetics/jpx" xmlns="http://www.topografix.com/GPX/1/1"><trk><trkseg><trkpt lat="44.34471712315193" lon="7.326423889026523"><ele>1182.0</ele><time>2026-04-11T13:31:06Z</time></trkpt><trkpt lat="44.34459488133922" lon="7.3265243422120445"><ele>1190.0</ele><time>2026-04-11T13:31:12Z</time></trkpt><trkpt lat="44.34463672175916" lon="7.326612701892187"><ele>1198.0</ele><time>2026-04-11T13:31:21Z</time></trkpt><trkpt lat="44.34466664995955" lon="7.326740299675659"><ele>1206.0</ele><time>2026-04-11T13:31:23Z</time></trkpt><trkpt lat="44.344671656035985" lon="7.326828471184844"><ele>1214.0</ele><time>2026-04-11T13:31:26Z</time></trkpt><trkpt lat="44.34470008005025" lon="7.326907236449963"><ele>1222.0</ele><time>2026-04-11T13:31:40.999Z</time></trkpt><trkpt lat="44.344640460487156" lon="7.326682959732805"><ele>1222.0</ele><time>2026-04-11T13:31:58.999Z</time></trkpt><trkpt lat="44.344583322082904" lon="7.326555839251802"><ele>1222.0</ele><time>2026-04-11T13:32:01.999Z</time></trkpt><trkpt lat="44.34466472818087" lon="7.326439255647976"><ele>1222.0</ele><time>2026-04-11T13:32:08.999Z</time></trkpt><trkpt lat="44.3447265606387" lon="7.326412744649804"><ele>1222.0</ele><time>2026-04-11T13:32:10.999Z</time></trkpt><trkpt lat="44.34475773207015" lon="7.326335530640375"><ele>1222.0</ele><time>2026-04-11T13:32:12.999Z</time></trkpt><trkpt lat="44.34478422338397" lon="7.3262353071942465"><ele>1222.0</ele><time>2026-04-11T13:32:14.999Z</time></trkpt><trkpt lat="44.34485209195975" lon="7.326152988393242"><ele>1215.0</ele><time>2026-04-11T13:32:16.999Z</time></trkpt><trkpt lat="44.34492137611188" lon="7.3260636386658256"><ele>1208.0</ele><time>2026-04-11T13:32:18.999Z</time></trkpt><trkpt lat="44.344970708841146" lon="7.32595236658454"><ele>1201.0</ele><time>2026-04-11T13:32:21Z</time></trkpt><trkpt lat="44.3450194074745" lon="7.325838239269923"><ele>1194.0</ele><time>2026-04-11T13:32:23Z</time></trkpt><trkpt lat="44.34514294402995" lon="7.325583075464504"><ele>1202.0</ele><time>2026-04-11T13:32:26Z</time></trkpt><trkpt lat="44.34519435223072" lon="7.325486118268649"><ele>1210.0</ele><time>2026-04-11T13:32:27Z</time></trkpt><trkpt lat="44.3452515790048" lon="7.325360098308538"><ele>1218.0</ele><time>2026-04-11T13:32:29Z</time></trkpt><trkpt lat="44.34534012528241" lon="7.3252579021076345"><ele>1226.0</ele><time>2026-04-11T13:32:31Z</time></trkpt><trkpt lat="44.34540027359661" lon="7.325133214573252"><ele>1234.0</ele><time>2026-04-11T13:32:33Z</time></trkpt><trkpt lat="44.345475088780816" lon="7.325036618199101"><ele>1235.4</ele><time>2026-04-11T13:32:35Z</time></trkpt><trkpt lat="44.345564458937424" lon="7.324961209833634"><ele>1236.8000000000002</ele><time>2026-04-11T13:32:37Z</time></trkpt><trkpt lat="44.34563997148849" lon="7.3248410607797725"><ele>1238.1999999999998</ele><time>2026-04-11T13:32:39Z</time></trkpt><trkpt lat="44.345691009166686" lon="7.3247846577554165"><ele>1239.6</ele><time>2026-04-11T13:32:40Z</time></trkpt><trkpt lat="44.34577399076126" lon="7.324677944081009"><ele>1241.0</ele><time>2026-04-11T13:32:42Z</time></trkpt><trkpt lat="44.34583155224846" lon="7.324565340417867"><ele>1241.0</ele><time>2026-04-11T13:32:44Z</time></trkpt><trkpt lat="44.345945280808785" lon="7.3243850280574945"><ele>1241.0</ele><time>2026-04-11T13:32:47Z</time></trkpt><trkpt lat="44.34602862797203" lon="7.324285993223027"><ele>1241.0</ele><time>2026-04-11T13:32:49Z</time></trkpt><trkpt lat="44.34607621162912" lon="7.324220623940207"><ele>1241.0</ele><time>2026-04-11T13:32:50Z</time></trkpt><trkpt lat="44.34616377238839" lon="7.324111870910707"><ele>1241.0</ele><time>2026-04-11T13:32:52Z</time></trkpt><trkpt lat="44.34626347904045" lon="7.324065820445835"><ele>1241.0</ele><time>2026-04-11T13:32:54Z</time></trkpt><trkpt lat="44.34633095613258" lon="7.324033550907361"><ele>1241.0</ele><time>2026-04-11T13:32:56Z</time></trkpt><trkpt lat="44.34643769618366" lon="7.324101779522624"><ele>1241.0</ele><time>2026-04-11T13:33:41Z</time></trkpt><trkpt lat="44.34652758431471" lon="7.324325746725452"><ele>1238.857142857143</ele><time>2026-04-11T13:33:44Z</time></trkpt><trkpt lat="44.34653195011822" lon="7.324439837344758"><ele>1236.7142857142856</ele><time>2026-04-11T13:33:45Z</time></trkpt><trkpt lat="44.34651942164276" lon="7.324542924584257"><ele>1234.5714285714284</ele><time>2026-04-11T13:33:46Z</time></trkpt><trkpt lat="44.346501806141575" lon="7.324651716040993"><ele>1232.4285714285716</ele><time>2026-04-11T13:33:47Z</time></trkpt><trkpt lat="44.346495794625795" lon="7.324754283714038"><ele>1230.2857142857142</ele><time>2026-04-11T13:33:48Z</time></trkpt><trkpt lat="44.34649678363607" lon="7.324859396089431"><ele>1228.142857142857</ele><time>2026-04-11T13:33:49Z</time></trkpt><trkpt lat="44.34649990133993" lon="7.324949206416287"><ele>1226.0</ele><time>2026-04-11T13:33:50Z</time></trkpt><trkpt lat="44.346500896603445" lon="7.325050606147209"><ele>1226.0</ele><time>2026-04-11T13:33:51Z</time></trkpt><trkpt lat="44.34647950009947" lon="7.325160458075833"><ele>1226.0</ele><time>2026-04-11T13:33:51.999Z</time></trkpt><trkpt lat="44.34644900374427" lon="7.325275011161591"><ele>1226.0</ele><time>2026-04-11T13:33:52.999Z</time></trkpt><trkpt lat="44.34641765891963" lon="7.325432127409946"><ele>1226.0</ele><time>2026-04-11T13:33:53.999Z</time></trkpt><trkpt lat="44.34638177955472" lon="7.325546326466862"><ele>1226.0</ele><time>2026-04-11T13:33:54.999Z</time></trkpt><trkpt lat="44.34634832968945" lon="7.325642300586446"><ele>1230.2</ele><time>2026-04-11T13:33:55.999Z</time></trkpt><trkpt lat="44.34631704992087" lon="7.325728643849026"><ele>1234.3999999999999</ele><time>2026-04-11T13:33:56.999Z</time></trkpt><trkpt lat="44.34627441800349" lon="7.3258667435006855"><ele>1238.6</ele><time>2026-04-11T13:33:58.999Z</time></trkpt><trkpt lat="44.34632765713716" lon="7.325916171491989"><ele>1242.8</ele><time>2026-04-11T13:34:01.999Z</time></trkpt><trkpt lat="44.3464177644495" lon="7.32573857694752"><ele>1247.0</ele><time>2026-04-11T13:34:05.999Z</time></trkpt><trkpt lat="44.34648249792449" lon="7.3255872928645065"><ele>1243.5</ele><time>2026-04-11T13:34:07.999Z</time></trkpt><trkpt lat="44.346558557323924" lon="7.325467219994333"><ele>1240.0</ele><time>2026-04-11T13:34:09.999Z</time></trkpt><trkpt lat="44.346602505254126" lon="7.325398901004807"><ele>1236.5</ele><time>2026-04-11T13:34:10.999Z</time></trkpt><trkpt lat="44.34665337471367" lon="7.325337281173147"><ele>1233.0</ele><time>2026-04-11T13:34:11.999Z</time></trkpt><trkpt lat="44.34671376574857" lon="7.325241171404365"><ele>1229.5</ele><time>2026-04-11T13:34:12.999Z</time></trkpt><trkpt lat="44.34677371347097" lon="7.325172292799412"><ele>1226.0</ele><time>2026-04-11T13:34:13.999Z</time></trkpt><trkpt lat="44.346834406937155" lon="7.325105673513969"><ele>1226.0</ele><time>2026-04-11T13:34:14.999Z</time></trkpt><trkpt lat="44.34688546180899" lon="7.325051976658757"><ele>1226.0</ele><time>2026-04-11T13:34:15.999Z</time></trkpt><trkpt lat="44.34694263490177" lon="7.324994825230619"><ele>1226.0</ele><time>2026-04-11T13:34:16.999Z</time></trkpt><trkpt lat="44.34707711212073" lon="7.3249304263613455"><ele>1226.0</ele><time>2026-04-11T13:34:18.999Z</time></trkpt><trkpt lat="44.34716229572293" lon="7.324890869837833"><ele>1226.0</ele><time>2026-04-11T13:34:19.999Z</time></trkpt><trkpt lat="44.34723603525173" lon="7.324870676885109"><ele>1226.0</ele><time>2026-04-11T13:34:20.999Z</time></trkpt><trkpt lat="44.347327965339105" lon="7.324899618513292"><ele>1225.25</ele><time>2026-04-11T13:34:22.999Z</time></trkpt><trkpt lat="44.34739110745714" lon="7.324700534932622"><ele>1224.5</ele><time>2026-04-11T13:34:27Z</time></trkpt><trkpt lat="44.347323676858394" lon="7.324585929179383"><ele>1223.75</ele><time>2026-04-11T13:34:29Z</time></trkpt><trkpt lat="44.34723640655378" lon="7.324452783708848"><ele>1223.0</ele><time>2026-04-11T13:34:31Z</time></trkpt><trkpt lat="44.34720440318369" lon="7.32436497605991"><ele>1223.0</ele><time>2026-04-11T13:34:32Z</time></trkpt><trkpt lat="44.347172620463795" lon="7.32428561343243"><ele>1223.0</ele><time>2026-04-11T13:34:33Z</time></trkpt><trkpt lat="44.34715639170293" lon="7.324196206108375"><ele>1223.0</ele><time>2026-04-11T13:34:34Z</time></trkpt><trkpt lat="44.34713756794428" lon="7.324052616478126"><ele>1223.0</ele><time>2026-04-11T13:34:36Z</time></trkpt><trkpt lat="44.34713860147519" lon="7.323962987298433"><ele>1223.0</ele><time>2026-04-11T13:34:37Z</time></trkpt><trkpt lat="44.347134922850465" lon="7.323839725895962"><ele>1223.0</ele><time>2026-04-11T13:34:38Z</time></trkpt><trkpt lat="44.34713182442352" lon="7.323689688422146"><ele>1226.2</ele><time>2026-04-11T13:34:39Z</time></trkpt><trkpt lat="44.347125201893604" lon="7.323533972325702"><ele>1229.4</ele><time>2026-04-11T13:34:40Z</time></trkpt><trkpt lat="44.34711248777974" lon="7.323397827355969"><ele>1232.6000000000001</ele><time>2026-04-11T13:34:41Z</time></trkpt><trkpt lat="44.347094668780585" lon="7.323280961079606"><ele>1235.8</ele><time>2026-04-11T13:34:42Z</time></trkpt><trkpt lat="44.34707458381211" lon="7.32317663296436"><ele>1239.0</ele><time>2026-04-11T13:34:43Z</time></trkpt><trkpt lat="44.34707214776177" lon="7.32284021377555"><ele>1243.5</ele><time>2026-04-11T13:37:05Z</time></trkpt><trkpt lat="44.34711617012685" lon="7.322576856998154"><ele>1248.0</ele><time>2026-04-11T13:37:09Z</time></trkpt><trkpt lat="44.347125471996755" lon="7.322429953426646"><ele>1252.5</ele><time>2026-04-11T13:37:11Z</time></trkpt><trkpt lat="44.34713015591193" lon="7.322337687973982"><ele>1257.0</ele><time>2026-04-11T13:37:12Z</time></trkpt><trkpt lat="44.3471406641949" lon="7.322175571986982"><ele>1260.0</ele><time>2026-04-11T13:37:14Z</time></trkpt><trkpt lat="44.347155057183414" lon="7.322012036865068"><ele>1263.0</ele><time>2026-04-11T13:37:16Z</time></trkpt><trkpt lat="44.34716333147218" lon="7.321919224669077"><ele>1266.0</ele><time>2026-04-11T13:37:17Z</time></trkpt><trkpt lat="44.34718497199622" lon="7.321830906066036"><ele>1269.0</ele><time>2026-04-11T13:37:18Z</time></trkpt><trkpt lat="44.34720766118031" lon="7.321746742982087"><ele>1272.0</ele><time>2026-04-11T13:37:19Z</time></trkpt><trkpt lat="44.34722571423753" lon="7.321647325655974"><ele>1275.0</ele><time>2026-04-11T13:37:20Z</time></trkpt><trkpt lat="44.34722975414823" lon="7.321556563437293"><ele>1279.8</ele><time>2026-04-11T13:37:21Z</time></trkpt><trkpt lat="44.34724677553943" lon="7.321466242243362"><ele>1284.6</ele><time>2026-04-11T13:37:22Z</time></trkpt><trkpt lat="44.347263084968525" lon="7.3213769727374975"><ele>1289.4</ele><time>2026-04-11T13:37:23Z</time></trkpt><trkpt lat="44.34726691387726" lon="7.321215475253354"><ele>1294.2</ele><time>2026-04-11T13:37:25Z</time></trkpt><trkpt lat="44.34730645347039" lon="7.320969643718197"><ele>1299.0</ele><time>2026-04-11T13:37:29Z</time></trkpt><trkpt lat="44.347297082111176" lon="7.320861133377318"><ele>1299.2</ele><time>2026-04-11T13:37:31Z</time></trkpt><trkpt lat="44.347285267391065" lon="7.320766287595334"><ele>1299.4</ele><time>2026-04-11T13:37:32Z</time></trkpt><trkpt lat="44.34724585106085" lon="7.320641948661076"><ele>1299.6</ele><time>2026-04-11T13:37:34Z</time></trkpt><trkpt lat="44.34722534806093" lon="7.320531789902247"><ele>1299.8</ele><time>2026-04-11T13:37:46Z</time></trkpt><trkpt lat="44.347215641070214" lon="7.320281820607268"><ele>1300.0</ele><time>2026-04-11T13:37:50Z</time></trkpt><trkpt lat="44.347262671455454" lon="7.320159456275002"><ele>1301.0</ele><time>2026-04-11T13:37:52Z</time></trkpt><trkpt lat="44.34731802118988" lon="7.32005149339894"><ele>1302.0</ele><time>2026-04-11T13:37:53.999Z</time></trkpt><trkpt lat="44.3473424083581" lon="7.319968848092443"><ele>1303.0</ele><time>2026-04-11T13:37:55.999Z</time></trkpt><trkpt lat="44.34741264271791" lon="7.31999039236981"><ele>1304.0</ele><time>2026-04-11T13:38:39Z</time></trkpt><trkpt lat="44.347398292830135" lon="7.320209586787225"><ele>1305.0</ele><time>2026-04-11T13:38:43Z</time></trkpt><trkpt lat="44.347373384874395" lon="7.320340718802333"><ele>1305.0</ele><time>2026-04-11T13:38:45Z</time></trkpt><trkpt lat="44.347417717304275" lon="7.320424950790365"><ele>1305.0</ele><time>2026-04-11T13:38:48Z</time></trkpt><trkpt lat="44.34748401924312" lon="7.320363549910289"><ele>1305.0</ele><time>2026-04-11T13:38:51Z</time></trkpt><trkpt lat="44.34746456679324" lon="7.3202577604480945"><ele>1305.0</ele><time>2026-04-11T13:38:53Z</time></trkpt><trkpt lat="44.34747149514474" lon="7.3201345556181785"><ele>1305.0</ele><time>2026-04-11T13:38:55Z</time></trkpt><trkpt lat="44.34752083931082" lon="7.320011704781843"><ele>1305.0</ele><time>2026-04-11T13:38:57Z</time></trkpt><trkpt lat="44.34753972061856" lon="7.319855896570643"><ele>1307.4</ele><time>2026-04-11T13:38:59Z</time></trkpt><trkpt lat="44.34753047719046" lon="7.319657311843393"><ele>1309.8</ele><time>2026-04-11T13:39:01Z</time></trkpt><trkpt lat="44.34753465107252" lon="7.319536776332893"><ele>1312.1999999999998</ele><time>2026-04-11T13:39:02Z</time></trkpt><trkpt lat="44.34754500561546" lon="7.3194380718596435"><ele>1314.6</ele><time>2026-04-11T13:39:03Z</time></trkpt><trkpt lat="44.34752900539286" lon="7.319289377923898"><ele>1317.0</ele><time>2026-04-11T13:39:05Z</time></trkpt><trkpt lat="44.34749448795202" lon="7.319128649574423"><ele>1317.0</ele><time>2026-04-11T13:39:07Z</time></trkpt><trkpt lat="44.347468626243526" lon="7.319021150195632"><ele>1317.0</ele><time>2026-04-11T13:39:08Z</time></trkpt><trkpt lat="44.347457558343436" lon="7.318931714142489"><ele>1317.0</ele><time>2026-04-11T13:39:09Z</time></trkpt><trkpt lat="44.347429307847726" lon="7.3187571211451665"><ele>1317.0</ele><time>2026-04-11T13:39:11Z</time></trkpt><trkpt lat="44.347399765028754" lon="7.318632140489603"><ele>1317.0</ele><time>2026-04-11T13:39:13Z</time></trkpt><trkpt lat="44.34745866320726" lon="7.318578283345729"><ele>1317.0</ele><time>2026-04-11T13:39:17Z</time></trkpt><trkpt lat="44.34751704205704" lon="7.318628535169961"><ele>1317.0</ele><time>2026-04-11T13:39:19Z</time></trkpt><trkpt lat="44.34753439332539" lon="7.318720563935619"><ele>1317.0</ele><time>2026-04-11T13:39:27Z</time></trkpt><trkpt lat="44.34762025178529" lon="7.31892379197211"><ele>1317.0</ele><time>2026-04-11T13:39:31Z</time></trkpt><trkpt lat="44.34767939037067" lon="7.319063526173009"><ele>1317.0</ele><time>2026-04-11T13:39:33Z</time></trkpt><trkpt lat="44.34773000911274" lon="7.3191817081336"><ele>1317.0</ele><time>2026-04-11T13:39:34Z</time></trkpt><trkpt lat="44.347789059852346" lon="7.319333106144337"><ele>1317.0</ele><time>2026-04-11T13:39:35Z</time></trkpt><trkpt lat="44.3478042016172" lon="7.319490001564007"><ele>1317.0</ele><time>2026-04-11T13:39:36Z</time></trkpt><trkpt lat="44.347822085967614" lon="7.3195972361506785"><ele>1317.0</ele><time>2026-04-11T13:39:37Z</time></trkpt><trkpt lat="44.34784406212388" lon="7.319702516284375"><ele>1317.0</ele><time>2026-04-11T13:39:38Z</time></trkpt><trkpt lat="44.34787273501586" lon="7.319810929597244"><ele>1314.6</ele><time>2026-04-11T13:39:39Z</time></trkpt><trkpt lat="44.347904153840965" lon="7.319907150158518"><ele>1312.1999999999998</ele><time>2026-04-11T13:39:40Z</time></trkpt><trkpt lat="44.34794105318254" lon="7.32001109250314"><ele>1309.8</ele><time>2026-04-11T13:39:41Z</time></trkpt><trkpt lat="44.34796251132721" lon="7.320119245589409"><ele>1307.4</ele><time>2026-04-11T13:39:42Z</time></trkpt><trkpt lat="44.34794344430582" lon="7.3202866517865255"><ele>1305.0</ele><time>2026-04-11T13:39:43.999Z</time></trkpt><trkpt lat="44.34792902068801" lon="7.320475177503195"><ele>1304.0</ele><time>2026-04-11T13:39:45.999Z</time></trkpt><trkpt lat="44.34792820249505" lon="7.320589913500574"><ele>1303.0</ele><time>2026-04-11T13:39:46.999Z</time></trkpt><trkpt lat="44.347932157080386" lon="7.32070229327664"><ele>1302.0</ele><time>2026-04-11T13:39:47.999Z</time></trkpt><trkpt lat="44.34794615995641" lon="7.320909388648205"><ele>1301.0</ele><time>2026-04-11T13:39:49.999Z</time></trkpt><trkpt lat="44.347957300956786" lon="7.321008762228335"><ele>1300.0</ele><time>2026-04-11T13:39:50.999Z</time></trkpt><trkpt lat="44.34798533884782" lon="7.321102870809738"><ele>1300.0</ele><time>2026-04-11T13:39:51.999Z</time></trkpt><trkpt lat="44.347997581151546" lon="7.321277213423363"><ele>1300.0</ele><time>2026-04-11T13:39:53.999Z</time></trkpt><trkpt lat="44.34803907897062" lon="7.321376604659081"><ele>1300.0</ele><time>2026-04-11T13:39:54.999Z</time></trkpt><trkpt lat="44.34808114790871" lon="7.321504912486023"><ele>1300.0</ele><time>2026-04-11T13:39:56.999Z</time></trkpt><trkpt lat="44.34811852835228" lon="7.321614782223546"><ele>1300.0</ele><time>2026-04-11T13:39:58.999Z</time></trkpt><trkpt lat="44.34818867786784" lon="7.321754113984395"><ele>1308.1666666666665</ele><time>2026-04-11T13:40:00.999Z</time></trkpt><trkpt lat="44.348227062635466" lon="7.321854245616249"><ele>1316.3333333333333</ele><time>2026-04-11T13:40:01.999Z</time></trkpt><trkpt lat="44.34825521508884" lon="7.321945736919894"><ele>1324.5</ele><time>2026-04-11T13:40:02.999Z</time></trkpt><trkpt lat="44.34828126795022" lon="7.32205571368763"><ele>1332.6666666666667</ele><time>2026-04-11T13:40:03.999Z</time></trkpt><trkpt lat="44.34828446643922" lon="7.3221492499940295"><ele>1340.8333333333335</ele><time>2026-04-11T13:40:04.999Z</time></trkpt><trkpt lat="44.34828268648111" lon="7.322280430294927"><ele>1349.0</ele><time>2026-04-11T13:40:06.999Z</time></trkpt><trkpt lat="44.348307389423056" lon="7.322403783425905"><ele>1349.0</ele><time>2026-04-11T13:40:07.999Z</time></trkpt><trkpt lat="44.34835240996258" lon="7.32249459895587"><ele>1349.0</ele><time>2026-04-11T13:40:08.999Z</time></trkpt><trkpt lat="44.348464193540416" lon="7.32269554707151"><ele>1349.0</ele><time>2026-04-11T13:40:11.999Z</time></trkpt><trkpt lat="44.34854385277714" lon="7.322824386899814"><ele>1349.0</ele><time>2026-04-11T13:40:13.999Z</time></trkpt><trkpt lat="44.348586736270256" lon="7.3228896023662156"><ele>1349.0</ele><time>2026-04-11T13:40:14.999Z</time></trkpt><trkpt lat="44.34863897712447" lon="7.322965164924567"><ele>1349.0</ele><time>2026-04-11T13:40:15.999Z</time></trkpt><trkpt lat="44.348693925257" lon="7.323022796737463"><ele>1349.0</ele><time>2026-04-11T13:40:16.999Z</time></trkpt><trkpt lat="44.348742132446375" lon="7.3230923253397835"><ele>1349.0</ele><time>2026-04-11T13:40:17.999Z</time></trkpt><trkpt lat="44.348799543656625" lon="7.323156199730127"><ele>1349.0</ele><time>2026-04-11T13:40:18.999Z</time></trkpt><trkpt lat="44.34884971981099" lon="7.323209921400307"><ele>1349.0</ele><time>2026-04-11T13:40:19.999Z</time></trkpt><trkpt lat="44.348909035931605" lon="7.32326002279454"><ele>1349.0</ele><time>2026-04-11T13:40:20.999Z</time></trkpt><trkpt lat="44.34901464612731" lon="7.32338880262576"><ele>1356.0</ele><time>2026-04-11T13:40:22.999Z</time></trkpt><trkpt lat="44.3490734535813" lon="7.32345321847708"><ele>1363.0</ele><time>2026-04-11T13:40:23.999Z</time></trkpt><trkpt lat="44.34917157099942" lon="7.323559407323873"><ele>1370.0</ele><time>2026-04-11T13:40:25.999Z</time></trkpt><trkpt lat="44.34925522850713" lon="7.3236225582524686"><ele>1377.0</ele><time>2026-04-11T13:41:03.999Z</time></trkpt><trkpt lat="44.349458277552536" lon="7.32381934662449"><ele>1377.0</ele><time>2026-04-11T13:41:07.999Z</time></trkpt><trkpt lat="44.34951327947487" lon="7.323894865069592"><ele>1377.0</ele><time>2026-04-11T13:41:08.999Z</time></trkpt><trkpt lat="44.349564566215946" lon="7.323958928294219"><ele>1377.0</ele><time>2026-04-11T13:41:09.999Z</time></trkpt><trkpt lat="44.349660452265276" lon="7.323947466130031"><ele>1377.0</ele><time>2026-04-11T13:41:11.999Z</time></trkpt><trkpt lat="44.34974509497343" lon="7.323981118665454"><ele>1377.0</ele><time>2026-04-11T13:41:13.999Z</time></trkpt><trkpt lat="44.349781718844" lon="7.324058716019051"><ele>1377.0</ele><time>2026-04-11T13:41:15.999Z</time></trkpt><trkpt lat="44.34972955670613" lon="7.324280263987325"><ele>1376.8333333333333</ele><time>2026-04-11T13:41:17.999Z</time></trkpt><trkpt lat="44.34975359700653" lon="7.324380934374102"><ele>1376.6666666666667</ele><time>2026-04-11T13:41:18.999Z</time></trkpt><trkpt lat="44.34977818551821" lon="7.324463959426544"><ele>1376.5</ele><time>2026-04-11T13:41:19.999Z</time></trkpt><trkpt lat="44.34983939714917" lon="7.324602786828774"><ele>1376.3333333333335</ele><time>2026-04-11T13:41:21.999Z</time></trkpt><trkpt lat="44.349896218428825" lon="7.324686532623214"><ele>1376.1666666666667</ele><time>2026-04-11T13:41:23.999Z</time></trkpt><trkpt lat="44.349974947163176" lon="7.3246863266191236"><ele>1376.0</ele><time>2026-04-11T13:41:25.999Z</time></trkpt><trkpt lat="44.350178645389235" lon="7.324770551136763"><ele>1376.0</ele><time>2026-04-11T13:41:29.999Z</time></trkpt><trkpt lat="44.35013536198262" lon="7.324939240161496"><ele>1376.0</ele><time>2026-04-11T13:41:31.999Z</time></trkpt><trkpt lat="44.35013875284305" lon="7.325033515684344"><ele>1376.0</ele><time>2026-04-11T13:41:32.999Z</time></trkpt><trkpt lat="44.3501891040072" lon="7.325175142035857"><ele>1376.0</ele><time>2026-04-11T13:41:34.999Z</time></trkpt><trkpt lat="44.35022091521109" lon="7.32526504047119"><ele>1376.0</ele><time>2026-04-11T13:41:35.999Z</time></trkpt><trkpt lat="44.3502661043247" lon="7.325363879827039"><ele>1376.0</ele><time>2026-04-11T13:41:36.999Z</time></trkpt><trkpt lat="44.35029403604345" lon="7.325475510566233"><ele>1376.0</ele><time>2026-04-11T13:41:37.999Z</time></trkpt><trkpt lat="44.3502872657873" lon="7.325618842260975"><ele>1376.0</ele><time>2026-04-11T13:41:38.999Z</time></trkpt><trkpt lat="44.35027330238501" lon="7.3257681277517515"><ele>1376.0</ele><time>2026-04-11T13:41:39.999Z</time></trkpt><trkpt lat="44.35023606839702" lon="7.325893482529396"><ele>1376.0</ele><time>2026-04-11T13:41:40.999Z</time></trkpt><trkpt lat="44.35017967832243" lon="7.326008298997214"><ele>1376.1999999999998</ele><time>2026-04-11T13:41:41.999Z</time></trkpt><trkpt lat="44.350108464133385" lon="7.326124204740624"><ele>1376.3999999999999</ele><time>2026-04-11T13:41:42.999Z</time></trkpt><trkpt lat="44.35002355188352" lon="7.326214938195092"><ele>1376.6</ele><time>2026-04-11T13:41:43.999Z</time></trkpt><trkpt lat="44.34993788134689" lon="7.326290394178795"><ele>1376.8</ele><time>2026-04-11T13:41:44.999Z</time></trkpt><trkpt lat="44.349846348032855" lon="7.326355127637967"><ele>1377.0</ele><time>2026-04-11T13:41:45.999Z</time></trkpt><trkpt lat="44.34973799256777" lon="7.326423210528983"><ele>1378.0</ele><time>2026-04-11T13:41:46.999Z</time></trkpt><trkpt lat="44.34949140955791" lon="7.326579490861209"><ele>1379.0</ele><time>2026-04-11T13:41:48.999Z</time></trkpt><trkpt lat="44.34939189110495" lon="7.326650853890783"><ele>1380.0</ele><time>2026-04-11T13:41:49.999Z</time></trkpt><trkpt lat="44.34930949251043" lon="7.326729647302988"><ele>1380.0</ele><time>2026-04-11T13:41:50.999Z</time></trkpt><trkpt lat="44.349229612319725" lon="7.326820079223755"><ele>1380.0</ele><time>2026-04-11T13:41:51.999Z</time></trkpt><trkpt lat="44.34913322637354" lon="7.3269239130565165"><ele>1380.0</ele><time>2026-04-11T13:41:52.999Z</time></trkpt><trkpt lat="44.349027177452236" lon="7.326972274317618"><ele>1380.0</ele><time>2026-04-11T13:41:53.999Z</time></trkpt><trkpt lat="44.34892653808552" lon="7.3270073395724005"><ele>1380.0</ele><time>2026-04-11T13:41:54.999Z</time></trkpt><trkpt lat="44.34884227770515" lon="7.32703375177761"><ele>1382.3333333333333</ele><time>2026-04-11T13:41:55.999Z</time></trkpt><trkpt lat="44.34876124142203" lon="7.327064150550686"><ele>1384.6666666666667</ele><time>2026-04-11T13:41:56.999Z</time></trkpt><trkpt lat="44.34869938810717" lon="7.327089191032683"><ele>1387.0</ele><time>2026-04-11T13:41:57.999Z</time></trkpt><trkpt lat="44.348686588423945" lon="7.327187073409028"><ele>1389.3333333333335</ele><time>2026-04-11T13:41:59.999Z</time></trkpt><trkpt lat="44.34876796918616" lon="7.327251003893309"><ele>1391.6666666666667</ele><time>2026-04-11T13:42:02.999Z</time></trkpt><trkpt lat="44.34885137567902" lon="7.327284157108391"><ele>1394.0</ele><time>2026-04-11T13:42:04.999Z</time></trkpt><trkpt lat="44.34892538457409" lon="7.327328738551594"><ele>1394.0</ele><time>2026-04-11T13:42:06.999Z</time></trkpt><trkpt lat="44.348998955628474" lon="7.3273359152447135"><ele>1394.0</ele><time>2026-04-11T13:42:43.999Z</time></trkpt><trkpt lat="44.34912495599674" lon="7.327498088293766"><ele>1394.0</ele><time>2026-04-11T13:42:45.999Z</time></trkpt><trkpt lat="44.349157152563244" lon="7.3276444713315225"><ele>1394.0</ele><time>2026-04-11T13:42:46.999Z</time></trkpt><trkpt lat="44.34921434122671" lon="7.327783786178043"><ele>1394.0</ele><time>2026-04-11T13:42:47.999Z</time></trkpt><trkpt lat="44.34925749921911" lon="7.327906785615864"><ele>1394.0</ele><time>2026-04-11T13:42:48.999Z</time></trkpt><trkpt lat="44.34929786748309" lon="7.328000310222453"><ele>1394.0</ele><time>2026-04-11T13:42:49.999Z</time></trkpt><trkpt lat="44.349332067319665" lon="7.328078821176762"><ele>1394.0</ele><time>2026-04-11T13:42:50.999Z</time></trkpt><trkpt lat="44.34939876726754" lon="7.328223577883541"><ele>1394.0</ele><time>2026-04-11T13:42:52.999Z</time></trkpt><trkpt lat="44.34948579797467" lon="7.328359599801282"><ele>1391.3333333333335</ele><time>2026-04-11T13:42:53.999Z</time></trkpt><trkpt lat="44.34953433232981" lon="7.328479010827455"><ele>1388.6666666666667</ele><time>2026-04-11T13:42:54.999Z</time></trkpt><trkpt lat="44.34956526350537" lon="7.328577596924539"><ele>1386.0</ele><time>2026-04-11T13:42:55.999Z</time></trkpt><trkpt lat="44.349606723859004" lon="7.328670513759372"><ele>1383.3333333333333</ele><time>2026-04-11T13:42:56.999Z</time></trkpt><trkpt lat="44.3496372769602" lon="7.328770150237082"><ele>1380.6666666666665</ele><time>2026-04-11T13:42:57.999Z</time></trkpt><trkpt lat="44.34965316484276" lon="7.328880600529479"><ele>1378.0</ele><time>2026-04-11T13:42:59Z</time></trkpt><trkpt lat="44.34968897312547" lon="7.328997627390074"><ele>1382.8333333333333</ele><time>2026-04-11T13:43:00Z</time></trkpt><trkpt lat="44.3497166785947" lon="7.329088172493157"><ele>1387.6666666666665</ele><time>2026-04-11T13:43:01Z</time></trkpt><trkpt lat="44.34974402779973" lon="7.3291775547231985"><ele>1392.5</ele><time>2026-04-11T13:43:02Z</time></trkpt><trkpt lat="44.349774262799464" lon="7.329276366846043"><ele>1397.3333333333333</ele><time>2026-04-11T13:43:03Z</time></trkpt><trkpt lat="44.349812334699244" lon="7.329348378413596"><ele>1402.1666666666667</ele><time>2026-04-11T13:43:04Z</time></trkpt><trkpt lat="44.34982331964784" lon="7.3295027563769315"><ele>1407.0</ele><time>2026-04-11T13:43:06Z</time></trkpt><trkpt lat="44.349736622488834" lon="7.329817857977786"><ele>1407.0</ele><time>2026-04-11T13:43:10Z</time></trkpt><trkpt lat="44.34972698826088" lon="7.32992728550029"><ele>1407.0</ele><time>2026-04-11T13:43:11Z</time></trkpt><trkpt lat="44.3496897703591" lon="7.330010547891909"><ele>1407.0</ele><time>2026-04-11T13:43:12Z</time></trkpt><trkpt lat="44.34966881155413" lon="7.330137863157686"><ele>1407.0</ele><time>2026-04-11T13:43:13Z</time></trkpt><trkpt lat="44.349634248425986" lon="7.330295354183267"><ele>1407.0</ele><time>2026-04-11T13:43:14Z</time></trkpt><trkpt lat="44.34958944328572" lon="7.330474258818366"><ele>1397.8</ele><time>2026-04-11T13:43:15Z</time></trkpt><trkpt lat="44.34954590457441" lon="7.330648128416499"><ele>1388.6</ele><time>2026-04-11T13:43:16Z</time></trkpt><trkpt lat="44.349514391973415" lon="7.33078820580034"><ele>1379.3999999999999</ele><time>2026-04-11T13:43:17Z</time></trkpt><trkpt lat="44.34949076967205" lon="7.330885721819218"><ele>1370.1999999999998</ele><time>2026-04-11T13:43:18Z</time></trkpt><trkpt lat="44.34946405395007" lon="7.33104312462746"><ele>1361.0</ele><time>2026-04-11T13:43:20Z</time></trkpt><trkpt lat="44.34939767800585" lon="7.331160549417277"><ele>1361.0</ele><time>2026-04-11T13:43:22Z</time></trkpt><trkpt lat="44.34934960426493" lon="7.331246620930757"><ele>1361.0</ele><time>2026-04-11T13:43:23Z</time></trkpt><trkpt lat="44.34930533562377" lon="7.331325881610184"><ele>1361.0</ele><time>2026-04-11T13:43:24Z</time></trkpt><trkpt lat="44.349252457530824" lon="7.331440878488406"><ele>1361.0</ele><time>2026-04-11T13:43:25Z</time></trkpt><trkpt lat="44.34922107309694" lon="7.331524046859308"><ele>1361.0</ele><time>2026-04-11T13:43:26Z</time></trkpt><trkpt lat="44.3491940630731" lon="7.331616073793092"><ele>1361.0</ele><time>2026-04-11T13:43:27Z</time></trkpt><trkpt lat="44.349154657922526" lon="7.331886502819808"><ele>1364.0</ele><time>2026-04-11T13:43:30Z</time></trkpt><trkpt lat="44.34915297924239" lon="7.331981403174312"><ele>1367.0</ele><time>2026-04-11T13:43:31Z</time></trkpt><trkpt lat="44.34915816118713" lon="7.332151251263973"><ele>1370.0</ele><time>2026-04-11T13:43:33Z</time></trkpt><trkpt lat="44.349176676391686" lon="7.332309667233256"><ele>1373.0</ele><time>2026-04-11T13:43:35Z</time></trkpt><trkpt lat="44.34920111228882" lon="7.332393710947963"><ele>1376.0</ele><time>2026-04-11T13:43:36Z</time></trkpt><trkpt lat="44.349229288159904" lon="7.332505317439392"><ele>1377.1999999999998</ele><time>2026-04-11T13:43:38Z</time></trkpt><trkpt lat="44.34924990798347" lon="7.332665678587888"><ele>1378.3999999999999</ele><time>2026-04-11T13:43:40Z</time></trkpt><trkpt lat="44.349238549907945" lon="7.332820435382925"><ele>1379.6</ele><time>2026-04-11T13:43:42Z</time></trkpt><trkpt lat="44.349233647827006" lon="7.332946830975852"><ele>1380.8</ele><time>2026-04-11T13:43:43Z</time></trkpt><trkpt lat="44.349213500109066" lon="7.333078263516077"><ele>1382.0</ele><time>2026-04-11T13:43:44Z</time></trkpt><trkpt lat="44.34918758730389" lon="7.3331924588466135"><ele>1382.0</ele><time>2026-04-11T13:43:45Z</time></trkpt><trkpt lat="44.349152184721675" lon="7.333285954883009"><ele>1382.0</ele><time>2026-04-11T13:43:46Z</time></trkpt><trkpt lat="44.34910799470407" lon="7.333418281512557"><ele>1382.0</ele><time>2026-04-11T13:43:48Z</time></trkpt><trkpt lat="44.34910675636072" lon="7.33364232027408"><ele>1382.0</ele><time>2026-04-11T13:43:52Z</time></trkpt><trkpt lat="44.349176266040494" lon="7.333662565203262"><ele>1382.0</ele><time>2026-04-11T13:43:54Z</time></trkpt><trkpt lat="44.34924238915569" lon="7.333661803339285"><ele>1382.0</ele><time>2026-04-11T13:43:56Z</time></trkpt><trkpt lat="44.34931058686249" lon="7.333671421030849"><ele>1382.0</ele><time>2026-04-11T13:43:57.999Z</time></trkpt><trkpt lat="44.34939462549006" lon="7.333677682387928"><ele>1382.0</ele><time>2026-04-11T13:43:59.999Z</time></trkpt><trkpt lat="44.34947070294599" lon="7.333676184126092"><ele>1382.0</ele><time>2026-04-11T13:44:01.999Z</time></trkpt><trkpt lat="44.349579892284915" lon="7.333667589344217"><ele>1382.0</ele><time>2026-04-11T13:44:03.999Z</time></trkpt><trkpt lat="44.349677763521804" lon="7.333666354068083"><ele>1382.0</ele><time>2026-04-11T13:44:05.999Z</time></trkpt><trkpt lat="44.34978174173304" lon="7.3336572188494475"><ele>1387.5</ele><time>2026-04-11T13:44:07.999Z</time></trkpt><trkpt lat="44.34985003157165" lon="7.333657623433689"><ele>1393.0</ele><time>2026-04-11T13:44:08.999Z</time></trkpt><trkpt lat="44.350032825731795" lon="7.333673837686477"><ele>1398.5</ele><time>2026-04-11T13:44:11.999Z</time></trkpt><trkpt lat="44.3501539660936" lon="7.3336708111175914"><ele>1404.0</ele><time>2026-04-11T13:44:13.999Z</time></trkpt><trkpt lat="44.350241229269734" lon="7.333681177831779"><ele>1404.0</ele><time>2026-04-11T13:44:15.999Z</time></trkpt><trkpt lat="44.35034094893143" lon="7.333688540410922"><ele>1404.0</ele><time>2026-04-11T13:44:17.999Z</time></trkpt><trkpt lat="44.35042809603022" lon="7.333697708808705"><ele>1404.0</ele><time>2026-04-11T13:44:19.999Z</time></trkpt><trkpt lat="44.35050500316432" lon="7.333714893186216"><ele>1404.0</ele><time>2026-04-11T13:44:22.999Z</time></trkpt><trkpt lat="44.35061217625301" lon="7.333701875835225"><ele>1404.0</ele><time>2026-04-11T13:44:52.999Z</time></trkpt><trkpt lat="44.350771889005976" lon="7.333798383032533"><ele>1405.0</ele><time>2026-04-11T13:44:57Z</time></trkpt><trkpt lat="44.35086092206658" lon="7.3338229452426305"><ele>1406.0</ele><time>2026-04-11T13:44:59Z</time></trkpt><trkpt lat="44.350929237673476" lon="7.333852688387229"><ele>1407.0</ele><time>2026-04-11T13:45:01Z</time></trkpt><trkpt lat="44.35100437761223" lon="7.3338815908641"><ele>1408.0</ele><time>2026-04-11T13:45:03Z</time></trkpt><trkpt lat="44.351094027307624" lon="7.333933554031426"><ele>1409.0</ele><time>2026-04-11T13:45:05Z</time></trkpt><trkpt lat="44.35117086406165" lon="7.333976125908924"><ele>1410.0</ele><time>2026-04-11T13:45:07Z</time></trkpt><trkpt lat="44.35123565239895" lon="7.334007461522121"><ele>1404.4</ele><time>2026-04-11T13:45:09Z</time></trkpt><trkpt lat="44.351314446647436" lon="7.33405232293009"><ele>1398.8</ele><time>2026-04-11T13:45:12Z</time></trkpt><trkpt lat="44.35138468714203" lon="7.334098155626109"><ele>1393.1999999999998</ele><time>2026-04-11T13:45:15Z</time></trkpt><trkpt lat="44.35145793280392" lon="7.334046996954596"><ele>1387.6</ele><time>2026-04-11T13:45:23Z</time></trkpt><trkpt lat="44.35139426650857" lon="7.334078152813728"><ele>1382.0</ele><time>2026-04-11T13:45:39Z</time></trkpt><trkpt lat="44.351227843428966" lon="7.334018687784445"><ele>1372.0</ele><time>2026-04-11T13:46:08Z</time></trkpt></trkseg></trk></gpx>